Time;durP1;ratioP1;P1;durP2;ratioP2;P2;SDS_P1;SDS_P2;PMS_P1;PMS_P2;Temp;Humidity;BMP_temperature;BMP_pressure;BME280_temperature;BME280_humidity;BME280_pressure;Samples;Min_cycle;Max_cycle;Signal;HPM_P1;HPM_P2
2023/09/14 00:03:52;;;;;;;3.03;1.20;;;;;;;;;;10385583;22;20750;-61
2023/09/14 00:07:52;;;;;;;1.40;1.30;;;;;;;;;;10387409;22;20050;-60
2023/09/14 00:11:52;;;;;;;2.08;1.38;;;;;;;;;;10386547;22;19999;-60
2023/09/14 00:15:53;;;;;;;2.20;1.10;;;;;;;;;;10384080;22;20007;-60
2023/09/14 00:19:53;;;;;;;2.65;1.20;;;;;;;;;;10386726;22;19991;-61
2023/09/14 00:23:53;;;;;;;1.83;1.20;;;;;;;;;;10384491;22;19999;-60
2023/09/14 00:27:53;;;;;;;2.17;1.30;;;;;;;;;;10385869;22;20019;-60
2023/09/14 00:31:55;;;;;;;2.15;1.10;;;;;;;;;;10381328;22;20007;-61
2023/09/14 00:35:55;;;;;;;1.80;1.10;;;;;;;;;;10379161;22;20007;-60
2023/09/14 00:39:55;;;;;;;2.88;1.30;;;;;;;;;;10382366;22;20003;-62
2023/09/14 00:43:55;;;;;;;1.70;1.20;;;;;;;;;;10382747;22;19996;-60
2023/09/14 00:47:59;;;;;;;1.97;1.30;;;;;;;;;;10380681;22;20011;-60
2023/09/14 00:51:59;;;;;;;1.15;1.05;;;;;;;;;;10378656;22;20065;-60
2023/09/14 00:56:01;;;;;;;1.10;1.00;;;;;;;;;;10377875;22;20018;-60
2023/09/14 01:00:04;;;;;;;1.13;1.08;;;;;;;;;;10381233;22;20007;-60
2023/09/14 01:04:05;;;;;;;1.33;1.00;;;;;;;;;;10375332;22;20523;-60
2023/09/14 01:08:05;;;;;;;1.55;1.08;;;;;;;;;;10374930;22;20021;-60
2023/09/14 01:12:08;;;;;;;3.22;1.20;;;;;;;;;;10374233;22;20667;-60
2023/09/14 01:16:14;;;;;;;1.42;1.08;;;;;;;;;;10375428;22;20068;-60
2023/09/14 01:20:16;;;;;;;1.50;1.00;;;;;;;;;;10374508;22;20061;-60
2023/09/14 01:24:46;;;;;;;1.10;1.00;;;;;;;;;;10375170;22;20431;-60
2023/09/14 01:28:46;;;;;;;1.40;1.00;;;;;;;;;;10376250;22;19999;-60
2023/09/14 01:32:48;;;;;;;1.55;1.00;;;;;;;;;;10375898;22;20019;-60
2023/09/14 01:36:48;;;;;;;3.13;1.08;;;;;;;;;;10378034;22;20009;-60
2023/09/14 01:40:49;;;;;;;1.75;1.30;;;;;;;;;;10375849;22;20681;-60
2023/09/14 01:44:50;;;;;;;1.83;0.98;;;;;;;;;;10377987;22;20018;-60
2023/09/14 01:48:50;;;;;;;3.60;1.05;;;;;;;;;;10375226;22;20169;-60
2023/09/14 01:52:52;;;;;;;4.13;1.98;;;;;;;;;;10376999;22;20573;-60
2023/09/14 01:56:52;;;;;;;1.77;1.30;;;;;;;;;;10378763;22;20236;-60
2023/09/14 02:00:52;;;;;;;1.30;1.20;;;;;;;;;;10379913;22;20030;-60
2023/09/14 02:04:52;;;;;;;1.77;1.20;;;;;;;;;;10375851;22;19992;-60
2023/09/14 02:08:53;;;;;;;3.05;1.27;;;;;;;;;;10377323;22;20030;-60
2023/09/14 02:12:53;;;;;;;2.05;1.10;;;;;;;;;;10379422;22;20026;-60
2023/09/14 02:16:53;;;;;;;1.20;1.07;;;;;;;;;;10375642;22;20022;-59
2023/09/14 02:20:53;;;;;;;1.23;1.00;;;;;;;;;;10376292;22;20221;-61
2023/09/14 02:24:54;;;;;;;1.60;1.10;;;;;;;;;;10379165;22;20007;-60
2023/09/14 02:28:54;;;;;;;1.70;1.17;;;;;;;;;;10379306;22;20002;-59
2023/09/14 02:32:54;;;;;;;1.30;1.17;;;;;;;;;;10379143;22;20061;-60
2023/09/14 02:36:54;;;;;;;2.72;1.35;;;;;;;;;;10378810;22;20007;-59
2023/09/14 02:40:54;;;;;;;2.90;1.20;;;;;;;;;;10375979;22;20006;-60
2023/09/14 02:44:55;;;;;;;1.10;1.00;;;;;;;;;;10382378;22;20003;-59
2023/09/14 02:48:55;;;;;;;1.77;1.30;;;;;;;;;;10380350;22;20241;-60
2023/09/14 02:52:55;;;;;;;2.30;1.30;;;;;;;;;;10378887;22;20485;-60
2023/09/14 02:56:55;;;;;;;1.70;1.00;;;;;;;;;;10378862;22;19995;-60
2023/09/14 03:00:56;;;;;;;3.23;1.20;;;;;;;;;;10380100;22;20011;-60
2023/09/14 03:04:58;;;;;;;2.15;1.25;;;;;;;;;;10380824;22;20237;-60
2023/09/14 03:08:58;;;;;;;2.05;1.10;;;;;;;;;;10380607;22;20073;-60
2023/09/14 03:13:00;;;;;;;3.17;1.38;;;;;;;;;;10377286;22;20007;-59
2023/09/14 03:17:00;;;;;;;4.47;1.20;;;;;;;;;;10380872;22;20042;-59
2023/09/14 03:21:00;;;;;;;1.87;1.23;;;;;;;;;;10381606;22;20791;-59
2023/09/14 03:25:00;;;;;;;3.25;1.40;;;;;;;;;;10384614;22;20364;-60
2023/09/14 03:29:01;;;;;;;2.00;1.40;;;;;;;;;;10386431;22;20003;-59
2023/09/14 03:33:01;;;;;;;1.53;1.27;;;;;;;;;;10383458;22;20316;-60
2023/09/14 03:37:01;;;;;;;2.50;1.30;;;;;;;;;;10384393;22;20065;-59
2023/09/14 03:41:02;;;;;;;1.65;1.27;;;;;;;;;;10383841;22;20010;-59
2023/09/14 03:45:02;;;;;;;1.85;1.30;;;;;;;;;;10385262;22;20004;-60
2023/09/14 03:49:06;;;;;;;2.95;1.25;;;;;;;;;;10383063;22;20019;-59
2023/09/14 03:53:08;;;;;;;3.50;1.10;;;;;;;;;;10382844;22;20003;-59
2023/09/14 03:57:14;;;;;;;2.75;1.20;;;;;;;;;;10383200;22;20061;-59
2023/09/14 04:01:14;;;;;;;2.63;1.25;;;;;;;;;;10383852;22;20019;-60
2023/09/14 04:05:15;;;;;;;2.67;1.30;;;;;;;;;;10382712;22;20098;-59
2023/09/14 04:09:15;;;;;;;2.22;1.40;;;;;;;;;;10381675;22;20027;-60
2023/09/14 04:13:32;;;;;;;2.78;1.20;;;;;;;;;;10382480;22;20538;-60
2023/09/14 04:17:32;;;;;;;3.72;1.38;;;;;;;;;;10383594;22;20700;-60
2023/09/14 04:21:33;;;;;;;3.35;1.70;;;;;;;;;;10378520;22;20015;-59
2023/09/14 04:25:33;;;;;;;2.70;1.30;;;;;;;;;;10382301;22;20026;-59
2023/09/14 04:29:33;;;;;;;2.53;1.40;;;;;;;;;;10384373;22;20006;-60
2023/09/14 04:33:35;;;;;;;3.05;1.33;;;;;;;;;;10380827;22;20019;-59
2023/09/14 04:37:35;;;;;;;4.25;1.48;;;;;;;;;;10381972;22;19999;-59
2023/09/14 04:41:35;;;;;;;2.47;1.60;;;;;;;;;;10381628;22;20007;-60
2023/09/14 04:45:36;;;;;;;1.83;1.25;;;;;;;;;;10381986;22;20077;-60
2023/09/14 04:49:36;;;;;;;4.80;1.50;;;;;;;;;;10380486;22;20022;-60
2023/09/14 04:53:36;;;;;;;3.03;1.70;;;;;;;;;;10383048;22;20003;-60
2023/09/14 04:57:36;;;;;;;6.45;1.50;;;;;;;;;;10381582;22;20468;-61
2023/09/14 05:01:37;;;;;;;1.48;1.38;;;;;;;;;;10379132;22;20419;-60
2023/09/14 05:05:38;;;;;;;1.88;1.40;;;;;;;;;;10383788;22;20012;-60
2023/09/14 05:09:38;;;;;;;5.43;1.70;;;;;;;;;;10380777;22;20440;-60
2023/09/14 05:13:38;;;;;;;2.97;1.60;;;;;;;;;;10379121;22;20009;-61
2023/09/14 05:17:38;;;;;;;4.22;1.77;;;;;;;;;;10379222;22;20015;-60
2023/09/14 05:21:38;;;;;;;2.10;1.55;;;;;;;;;;10377992;22;20679;-60
2023/09/14 05:25:39;;;;;;;4.57;1.47;;;;;;;;;;10376449;22;20062;-60
2023/09/14 05:29:41;;;;;;;4.13;1.88;;;;;;;;;;10376922;22;20073;-60
2023/09/14 05:33:41;;;;;;;2.90;1.85;;;;;;;;;;10382185;22;20766;-60
2023/09/14 05:37:41;;;;;;;3.95;1.77;;;;;;;;;;10379561;22;20074;-64
2023/09/14 05:41:43;;;;;;;2.50;1.60;;;;;;;;;;10378369;22;20003;-60
2023/09/14 05:45:43;;;;;;;2.60;1.75;;;;;;;;;;10378002;22;20483;-60
2023/09/14 05:49:44;;;;;;;4.00;1.58;;;;;;;;;;10379387;22;20520;-61
2023/09/14 05:53:44;;;;;;;3.13;1.40;;;;;;;;;;10380133;22;20003;-60
2023/09/14 05:57:44;;;;;;;2.47;1.58;;;;;;;;;;10385536;22;20125;-61
2023/09/14 06:01:44;;;;;;;3.00;1.90;;;;;;;;;;10377954;22;20015;-61
2023/09/14 06:05:44;;;;;;;3.83;1.70;;;;;;;;;;10378822;22;20061;-62
2023/09/14 06:09:45;;;;;;;3.95;1.40;;;;;;;;;;10383164;22;20011;-62
2023/09/14 06:13:45;;;;;;;2.57;1.77;;;;;;;;;;10383344;22;20002;-62
2023/09/14 06:17:46;;;;;;;4.82;1.90;;;;;;;;;;10381451;22;20042;-61
2023/09/14 06:21:47;;;;;;;3.47;2.08;;;;;;;;;;10378315;22;20080;-62
2023/09/14 06:25:49;;;;;;;2.83;1.80;;;;;;;;;;10375704;22;20027;-62
2023/09/14 06:29:50;;;;;;;;;;;;;;;;;;10381516;22;19999;-62
2023/09/14 06:33:50;;;;;;;6.35;1.95;;;;;;;;;;10343965;22;20310;-62
2023/09/14 06:37:50;;;;;;;2.70;1.63;;;;;;;;;;10371946;22;19999;-62
2023/09/14 06:41:50;;;;;;;6.45;1.70;;;;;;;;;;10372163;22;20002;-62
2023/09/14 06:45:51;;;;;;;3.53;1.92;;;;;;;;;;10375743;22;20023;-63
2023/09/14 06:49:51;;;;;;;4.53;1.90;;;;;;;;;;10372194;22;20019;-62
2023/09/14 06:53:51;;;;;;;5.97;2.20;;;;;;;;;;10377280;22;20000;-63
2023/09/14 06:57:51;;;;;;;4.65;2.00;;;;;;;;;;10371703;22;20065;-62
2023/09/14 07:01:51;;;;;;;3.58;2.05;;;;;;;;;;10376608;22;20079;-60
2023/09/14 07:05:52;;;;;;;3.97;2.00;;;;;;;;;;10376243;22;20082;-60
2023/09/14 07:09:53;;;;;;;5.05;2.13;;;;;;;;;;10379596;22;20054;-61
2023/09/14 07:13:53;;;;;;;2.97;1.77;;;;;;;;;;10378992;22;20003;-61
2023/09/14 07:17:54;;;;;;;6.30;2.10;;;;;;;;;;10378799;22;20022;-60
2023/09/14 07:21:54;;;;;;;4.38;2.28;;;;;;;;;;10378931;22;20006;-60
2023/09/14 07:25:55;;;;;;;4.13;1.87;;;;;;;;;;10379262;22;20007;-60
2023/09/14 07:29:55;;;;;;;3.40;2.10;;;;;;;;;;10379271;22;20288;-60
2023/09/14 07:33:55;;;;;;;4.30;1.75;;;;;;;;;;10374266;22;20722;-60
2023/09/14 07:37:55;;;;;;;6.95;2.20;;;;;;;;;;10376865;22;20003;-60
2023/09/14 07:41:56;;;;;;;6.83;2.03;;;;;;;;;;10375830;22;20103;-60
2023/09/14 07:45:57;;;;;;;3.22;1.70;;;;;;;;;;10376022;22;20019;-61
2023/09/14 07:49:57;;;;;;;5.13;2.03;;;;;;;;;;10374585;22;20275;-60
2023/09/14 07:53:59;;;;;;;4.13;2.10;;;;;;;;;;10372885;22;20784;-60
2023/09/14 07:57:59;;;;;;;5.55;1.83;;;;;;;;;;10374116;22;19995;-60
2023/09/14 08:02:00;;;;;;;3.45;1.77;;;;;;;;;;10374936;22;20601;-60
2023/09/14 08:06:00;;;;;;;6.53;2.13;;;;;;;;;;10382212;22;20843;-60
2023/09/14 08:10:00;;;;;;;4.82;2.05;;;;;;;;;;10376958;22;20006;-60
2023/09/14 08:14:00;;;;;;;3.70;2.10;;;;;;;;;;10377582;22;20007;-60
2023/09/14 08:18:00;;;;;;;4.57;2.10;;;;;;;;;;10375394;22;20598;-60
2023/09/14 08:22:01;;;;;;;3.60;2.05;;;;;;;;;;10374773;22;20474;-60
2023/09/14 08:26:04;;;;;;;3.37;1.90;;;;;;;;;;10378078;22;20011;-59
2023/09/14 08:30:05;;;;;;;5.93;2.00;;;;;;;;;;10378931;22;20247;-60
2023/09/14 08:34:06;;;;;;;3.73;2.03;;;;;;;;;;10381979;22;20018;-60
2023/09/14 08:38:06;;;;;;;4.13;2.17;;;;;;;;;;10377876;22;20003;-59
2023/09/14 08:42:07;;;;;;;3.65;2.03;;;;;;;;;;10375966;22;20003;-59
2023/09/14 08:46:09;;;;;;;5.30;1.90;;;;;;;;;;10377213;22;20346;-59
2023/09/14 08:50:13;;;;;;;3.27;1.70;;;;;;;;;;10373920;22;20006;-61
2023/09/14 08:54:14;;;;;;;4.78;1.70;;;;;;;;;;10378093;22;20280;-61
2023/09/14 08:58:14;;;;;;;2.50;1.52;;;;;;;;;;10374694;22;20035;-61
2023/09/14 09:02:15;;;;;;;3.17;1.50;;;;;;;;;;10377004;22;20015;-61
2023/09/14 09:06:17;;;;;;;3.13;1.50;;;;;;;;;;10377511;22;20391;-61
2023/09/14 09:10:23;;;;;;;4.47;2.03;;;;;;;;;;10374282;22;20030;-61
2023/09/14 09:14:27;;;;;;;4.35;2.05;;;;;;;;;;10378572;22;20557;-61
2023/09/14 09:18:27;;;;;;;5.45;2.13;;;;;;;;;;10372145;22;20394;-62
2023/09/14 09:22:28;;;;;;;3.37;1.40;;;;;;;;;;10374747;22;20106;-61
2023/09/14 09:26:35;;;;;;;3.47;1.40;;;;;;;;;;10376270;22;20004;-61
2023/09/14 09:30:36;;;;;;;3.40;1.60;;;;;;;;;;10376535;22;20018;-61
2023/09/14 09:34:36;;;;;;;4.70;1.63;;;;;;;;;;10373766;22;19999;-61
2023/09/14 09:38:37;;;;;;;4.70;1.80;;;;;;;;;;10378687;22;20007;-61
2023/09/14 09:42:37;;;;;;;5.68;2.10;;;;;;;;;;10374453;22;20033;-61
2023/09/14 09:46:37;;;;;;;5.45;1.73;;;;;;;;;;10372296;22;20033;-61
2023/09/14 09:50:38;;;;;;;3.27;1.63;;;;;;;;;;10375476;22;20007;-61
2023/09/14 09:54:38;;;;;;;3.38;1.65;;;;;;;;;;10377612;22;20447;-61
2023/09/14 09:58:39;;;;;;;4.10;1.92;;;;;;;;;;10374212;22;20006;-61
2023/09/14 10:02:39;;;;;;;5.05;1.92;;;;;;;;;;10375705;22;20039;-61
2023/09/14 10:06:43;;;;;;;3.00;1.42;;;;;;;;;;10376038;22;20003;-61
2023/09/14 10:10:53;;;;;;;4.03;1.50;;;;;;;;;;10374220;22;20325;-61
2023/09/14 10:14:55;;;;;;;5.43;1.70;;;;;;;;;;10375020;22;20053;-61
2023/09/14 10:18:56;;;;;;;3.42;1.85;;;;;;;;;;10373783;22;20081;-61
2023/09/14 10:22:57;;;;;;;3.30;1.58;;;;;;;;;;10375120;22;20077;-61
2023/09/14 10:26:58;;;;;;;5.13;1.52;;;;;;;;;;10373099;22;20003;-61
2023/09/14 10:30:59;;;;;;;4.00;1.55;;;;;;;;;;10373789;22;20105;-61
2023/09/14 10:35:00;;;;;;;4.88;1.40;;;;;;;;;;10373740;22;20492;-61
2023/09/14 10:39:01;;;;;;;2.97;1.40;;;;;;;;;;10374237;22;20019;-61
2023/09/14 10:43:01;;;;;;;2.85;1.30;;;;;;;;;;10376094;22;20117;-62
2023/09/14 10:47:02;;;;;;;3.25;1.30;;;;;;;;;;10375469;22;20381;-62
2023/09/14 10:51:02;;;;;;;2.38;1.42;;;;;;;;;;10373513;22;20008;-61
2023/09/14 10:55:07;;;;;;;2.80;1.50;;;;;;;;;;10375068;22;20003;-61
2023/09/14 10:59:08;;;;;;;2.22;1.50;;;;;;;;;;10375315;22;20670;-61
2023/09/14 11:03:09;;;;;;;2.67;1.40;;;;;;;;;;10373962;22;20019;-61
2023/09/14 11:07:29;;;;;;;3.00;1.45;;;;;;;;;;10370696;22;19995;-61
2023/09/14 11:11:39;;;;;;;2.40;1.23;;;;;;;;;;10371168;22;20027;-61
2023/09/14 11:15:40;;;;;;;3.30;1.30;;;;;;;;;;10374747;22;20039;-62
2023/09/14 11:19:40;;;;;;;2.40;1.50;;;;;;;;;;10370308;22;19995;-62
2023/09/14 11:23:41;;;;;;;1.67;1.33;;;;;;;;;;10372833;22;20494;-62
2023/09/14 11:27:42;;;;;;;4.30;1.40;;;;;;;;;;10376364;22;20113;-62
2023/09/14 11:31:42;;;;;;;6.97;1.90;;;;;;;;;;10368025;22;20015;-62
2023/09/14 11:35:47;;;;;;;1.77;1.30;;;;;;;;;;10374892;22;20018;-62
2023/09/14 11:39:54;;;;;;;2.35;1.30;;;;;;;;;;10376359;22;20011;-63
2023/09/14 11:44:04;;;;;;;1.92;1.20;;;;;;;;;;10377779;22;20033;-62
2023/09/14 11:48:14;;;;;;;3.75;1.70;;;;;;;;;;10375215;22;20042;-62
2023/09/14 11:52:18;;;;;;;1.42;1.15;;;;;;;;;;10373393;22;20003;-62
2023/09/14 11:56:18;;;;;;;2.40;1.33;;;;;;;;;;10364462;22;20883;-60
2023/09/14 12:00:23;;;;;;;1.88;1.20;;;;;;;;;;10362093;22;20483;-61
2023/09/14 12:04:30;;;;;;;2.13;1.20;;;;;;;;;;10376873;22;20413;-61
2023/09/14 12:08:31;;;;;;;1.90;1.23;;;;;;;;;;10377409;22;20003;-61
2023/09/14 12:12:33;;;;;;;2.85;1.35;;;;;;;;;;10370021;22;20006;-61
2023/09/14 12:16:36;;;;;;;3.17;1.30;;;;;;;;;;10372998;22;20069;-60
2023/09/14 12:20:40;;;;;;;4.10;1.50;;;;;;;;;;10372964;22;20345;-60
2023/09/14 12:24:41;;;;;;;2.45;1.42;;;;;;;;;;10372527;22;20003;-60
2023/09/14 12:28:43;;;;;;;2.15;1.33;;;;;;;;;;10374613;22;20090;-60
2023/09/14 12:32:44;;;;;;;2.70;1.00;;;;;;;;;;10372332;22;20054;-61
2023/09/14 12:36:44;;;;;;;2.90;1.30;;;;;;;;;;10375656;22;20011;-60
2023/09/14 12:40:44;;;;;;;2.60;1.38;;;;;;;;;;10374284;22;20224;-61
2023/09/14 12:44:44;;;;;;;2.03;1.30;;;;;;;;;;10373895;22;20003;-61
2023/09/14 12:48:45;;;;;;;2.80;1.37;;;;;;;;;;10374411;22;20431;-61
2023/09/14 12:52:46;;;;;;;3.60;1.42;;;;;;;;;;10374262;22;20297;-60
2023/09/14 12:56:46;;;;;;;3.05;1.48;;;;;;;;;;10370718;22;20751;-60
2023/09/14 13:00:47;;;;;;;1.55;1.05;;;;;;;;;;10372649;22;20011;-61
2023/09/14 13:04:48;;;;;;;2.42;1.30;;;;;;;;;;10372785;22;20015;-61
2023/09/14 13:08:48;;;;;;;3.67;1.50;;;;;;;;;;10372678;22;19999;-61
2023/09/14 13:13:01;;;;;;;3.13;1.40;;;;;;;;;;10370689;22;20796;-61
2023/09/14 13:17:02;;;;;;;3.33;1.23;;;;;;;;;;10374319;22;20141;-61
2023/09/14 13:21:05;;;;;;;2.20;1.30;;;;;;;;;;10376020;22;20006;-61
2023/09/14 13:25:05;;;;;;;6.45;1.70;;;;;;;;;;10372921;22;20007;-61
2023/09/14 13:29:06;;;;;;;6.60;1.70;;;;;;;;;;10374143;22;20001;-61
2023/09/14 13:33:09;;;;;;;6.50;1.63;;;;;;;;;;10372000;22;20037;-61
2023/09/14 13:37:09;;;;;;;7.90;1.40;;;;;;;;;;10373477;22;19999;-61
2023/09/14 13:41:13;;;;;;;3.25;1.50;;;;;;;;;;10369347;22;19995;-61
2023/09/14 13:45:13;;;;;;;3.35;1.55;;;;;;;;;;10368311;22;20106;-60
2023/09/14 13:49:13;;;;;;;2.23;1.10;;;;;;;;;;10367968;22;20007;-61
2023/09/14 13:53:13;;;;;;;3.33;1.30;;;;;;;;;;10370279;22;20061;-61
2023/09/14 13:57:14;;;;;;;1.30;1.13;;;;;;;;;;10370030;22;20039;-61
2023/09/14 14:01:14;;;;;;;3.05;1.30;;;;;;;;;;10370244;22;20043;-61
2023/09/14 14:05:15;;;;;;;4.28;1.50;;;;;;;;;;10371774;22;20057;-61
2023/09/14 14:09:20;;;;;;;2.38;1.60;;;;;;;;;;10373686;22;20729;-61
2023/09/14 14:13:20;;;;;;;3.88;1.50;;;;;;;;;;10370496;22;20003;-61
2023/09/14 14:17:20;;;;;;;3.30;1.60;;;;;;;;;;10369154;22;20019;-61
2023/09/14 14:21:21;;;;;;;3.95;1.30;;;;;;;;;;10367825;22;19999;-60
2023/09/14 14:25:22;;;;;;;1.58;1.30;;;;;;;;;;10369718;22;20101;-61
2023/09/14 14:29:22;;;;;;;2.38;1.20;;;;;;;;;;10370084;22;19995;-61
2023/09/14 14:33:22;;;;;;;3.33;1.38;;;;;;;;;;10371467;22;20026;-61
2023/09/14 14:37:22;;;;;;;2.13;1.40;;;;;;;;;;10370152;22;19999;-60
2023/09/14 14:41:22;;;;;;;2.13;1.20;;;;;;;;;;10368844;22;20278;-60
2023/09/14 14:45:25;;;;;;;2.45;1.23;;;;;;;;;;10367936;22;20066;-61
2023/09/14 14:49:25;;;;;;;4.63;1.50;;;;;;;;;;10373398;22;20113;-60
2023/09/14 14:53:25;;;;;;;1.88;1.20;;;;;;;;;;10374474;22;19995;-60
2023/09/14 14:57:26;;;;;;;1.85;1.20;;;;;;;;;;10369514;22;20003;-60
2023/09/14 15:01:26;;;;;;;3.40;1.40;;;;;;;;;;10370059;22;20015;-60
2023/09/14 15:05:26;;;;;;;3.40;1.42;;;;;;;;;;10372647;22;20006;-60
2023/09/14 15:09:27;;;;;;;3.00;1.40;;;;;;;;;;10373896;22;20257;-61
2023/09/14 15:13:28;;;;;;;4.30;1.50;;;;;;;;;;10374389;22;20243;-60
2023/09/14 15:17:28;;;;;;;2.63;1.30;;;;;;;;;;10375539;22;20018;-60
2023/09/14 15:21:28;;;;;;;4.22;1.60;;;;;;;;;;10366169;22;19999;-61
2023/09/14 15:25:30;;;;;;;3.87;1.60;;;;;;;;;;10376813;22;20015;-61
2023/09/14 15:29:30;;;;;;;4.95;1.45;;;;;;;;;;10377305;22;20007;-60
2023/09/14 15:33:31;;;;;;;2.45;1.50;;;;;;;;;;10375952;22;20015;-60
2023/09/14 15:37:31;;;;;;;1.95;1.30;;;;;;;;;;10378233;22;20082;-60
2023/09/14 15:41:31;;;;;;;4.50;1.40;;;;;;;;;;10377285;22;20007;-60
2023/09/14 15:45:38;;;;;;;2.75;1.30;;;;;;;;;;10376485;22;20543;-60
2023/09/14 15:49:38;;;;;;;3.38;1.50;;;;;;;;;;10374337;22;20011;-61
2023/09/14 15:53:38;;;;;;;2.90;1.48;;;;;;;;;;10374147;22;20375;-61
2023/09/14 15:57:38;;;;;;;2.20;1.30;;;;;;;;;;10370737;22;20009;-62
2023/09/14 16:01:39;;;;;;;7.45;1.45;;;;;;;;;;10376956;22;20234;-62
2023/09/14 16:05:39;;;;;;;2.30;1.48;;;;;;;;;;10374975;22;20061;-61
2023/09/14 16:09:39;;;;;;;2.37;1.13;;;;;;;;;;10372583;22;20079;-61
2023/09/14 16:13:40;;;;;;;2.55;1.15;;;;;;;;;;10376817;22;19999;-62
2023/09/14 16:17:40;;;;;;;2.00;1.30;;;;;;;;;;10370258;22;20483;-61
2023/09/14 16:21:41;;;;;;;1.67;1.20;;;;;;;;;;10373446;22;19999;-60
2023/09/14 16:25:42;;;;;;;2.35;1.10;;;;;;;;;;10382458;22;20023;-60
2023/09/14 16:29:42;;;;;;;1.53;1.17;;;;;;;;;;10363774;22;20757;-60
2023/09/14 16:33:42;;;;;;;5.13;1.25;;;;;;;;;;10366828;22;20069;-60
2023/09/14 16:37:42;;;;;;;3.33;1.55;;;;;;;;;;10374596;22;20030;-60
2023/09/14 16:41:42;;;;;;;2.13;1.20;;;;;;;;;;10371930;22;20030;-60
2023/09/14 16:45:43;;;;;;;4.03;1.30;;;;;;;;;;10375122;22;20392;-60
2023/09/14 16:49:43;;;;;;;3.28;1.25;;;;;;;;;;10369689;22;20011;-59
2023/09/14 16:53:43;;;;;;;2.22;1.40;;;;;;;;;;10374683;22;20010;-60
2023/09/14 16:57:46;;;;;;;3.58;1.23;;;;;;;;;;10374865;22;20002;-59
2023/09/14 17:01:46;;;;;;;3.83;1.42;;;;;;;;;;10369861;22;20089;-59
2023/09/14 17:05:46;;;;;;;4.57;1.40;;;;;;;;;;10371731;22;20556;-59
2023/09/14 17:09:47;;;;;;;1.63;1.00;;;;;;;;;;10369149;22;20078;-59
2023/09/14 17:13:47;;;;;;;1.85;1.35;;;;;;;;;;10373291;22;20006;-59
2023/09/14 17:17:48;;;;;;;2.45;1.40;;;;;;;;;;10370515;22;20045;-60
2023/09/14 17:21:48;;;;;;;4.15;1.08;;;;;;;;;;10369987;22;20435;-59
2023/09/14 17:25:53;;;;;;;2.00;1.10;;;;;;;;;;10371973;22;20003;-59
2023/09/14 17:29:53;;;;;;;2.38;1.08;;;;;;;;;;10375151;22;20004;-59
2023/09/14 17:33:53;;;;;;;2.67;1.17;;;;;;;;;;10373602;22;20019;-59
2023/09/14 17:37:53;;;;;;;3.60;1.17;;;;;;;;;;10374785;22;20006;-60
2023/09/14 17:41:54;;;;;;;2.78;1.20;;;;;;;;;;10374940;22;20007;-60
2023/09/14 17:45:54;;;;;;;1.90;1.00;;;;;;;;;;10374189;22;20039;-59
2023/09/14 17:49:54;;;;;;;3.08;1.10;;;;;;;;;;10372315;22;20022;-59
2023/09/14 17:53:55;;;;;;;2.35;1.00;;;;;;;;;;10372463;22;20002;-60
2023/09/14 17:57:55;;;;;;;2.47;1.10;;;;;;;;;;10372542;22;19999;-59
2023/09/14 18:01:56;;;;;;;3.17;1.30;;;;;;;;;;10373277;22;20026;-59
2023/09/14 18:05:56;;;;;;;3.72;1.17;;;;;;;;;;10361474;22;20007;-60
2023/09/14 18:09:57;;;;;;;2.50;1.10;;;;;;;;;;10368820;22;20380;-59
2023/09/14 18:13:58;;;;;;;1.55;1.10;;;;;;;;;;10374725;22;20034;-59
2023/09/14 18:17:58;;;;;;;2.30;1.23;;;;;;;;;;10370128;22;20016;-58
2023/09/14 18:21:58;;;;;;;2.63;1.17;;;;;;;;;;10368970;22;20170;-60
2023/09/14 18:25:59;;;;;;;2.85;1.40;;;;;;;;;;10368666;22;20031;-58
2023/09/14 18:29:59;;;;;;;2.67;1.20;;;;;;;;;;10370728;22;20080;-59
2023/09/14 18:33:59;;;;;;;1.55;1.10;;;;;;;;;;10360956;22;20023;-59
2023/09/14 18:37:59;;;;;;;2.27;1.40;;;;;;;;;;10369140;22;20007;-59
2023/09/14 18:42:00;;;;;;;2.90;1.50;;;;;;;;;;10368151;22;20345;-59
2023/09/14 18:46:00;;;;;;;2.95;1.27;;;;;;;;;;10372707;22;20026;-59
2023/09/14 18:50:00;;;;;;;1.73;1.00;;;;;;;;;;10372950;22;20102;-59
2023/09/14 18:54:00;;;;;;;2.33;1.20;;;;;;;;;;10367093;22;20003;-59
2023/09/14 18:58:01;;;;;;;3.53;1.48;;;;;;;;;;10368563;22;20007;-59
2023/09/14 19:02:01;;;;;;;1.38;1.10;;;;;;;;;;10370913;22;20511;-58
2023/09/14 19:06:01;;;;;;;2.47;1.20;;;;;;;;;;10371074;22;20010;-59
2023/09/14 19:10:03;;;;;;;1.20;1.10;;;;;;;;;;10371099;22;20003;-59
2023/09/14 19:14:03;;;;;;;3.45;1.40;;;;;;;;;;10372961;22;20077;-59
2023/09/14 19:18:04;;;;;;;3.87;1.30;;;;;;;;;;10368289;22;20118;-60
2023/09/14 19:22:04;;;;;;;1.40;1.13;;;;;;;;;;10369957;22;20006;-59
2023/09/14 19:26:04;;;;;;;2.20;1.10;;;;;;;;;;10373938;22;20010;-59
2023/09/14 19:30:05;;;;;;;2.03;1.45;;;;;;;;;;10369860;22;20048;-59
2023/09/14 19:34:05;;;;;;;3.53;1.40;;;;;;;;;;10362763;22;20010;-59
2023/09/14 19:38:06;;;;;;;2.38;1.38;;;;;;;;;;10367685;22;20003;-59
2023/09/14 19:42:06;;;;;;;3.25;1.50;;;;;;;;;;10366480;22;20340;-59
2023/09/14 19:46:06;;;;;;;2.88;1.20;;;;;;;;;;10369172;22;20348;-59
2023/09/14 19:50:07;;;;;;;3.30;1.25;;;;;;;;;;10365844;22;20018;-60
2023/09/14 19:54:10;;;;;;;3.10;1.50;;;;;;;;;;10371142;22;20255;-59
2023/09/14 19:58:10;;;;;;;3.78;1.40;;;;;;;;;;10374179;22;20027;-58
2023/09/14 20:02:13;;;;;;;3.05;1.63;;;;;;;;;;10370270;22;20018;-59
2023/09/14 20:06:13;;;;;;;4.30;1.30;;;;;;;;;;10374736;22;20003;-59
2023/09/14 20:10:13;;;;;;;4.63;1.33;;;;;;;;;;10374607;22;20503;-59
2023/09/14 20:14:13;;;;;;;1.30;1.10;;;;;;;;;;10374479;22;20222;-58
2023/09/14 20:18:14;;;;;;;2.13;1.30;;;;;;;;;;10371958;22;20022;-59
2023/09/14 20:22:14;;;;;;;5.10;1.30;;;;;;;;;;10373671;22;20722;-59
2023/09/14 20:26:14;;;;;;;2.35;1.27;;;;;;;;;;10372996;22;20030;-59
2023/09/14 20:30:15;;;;;;;2.95;1.15;;;;;;;;;;10374728;22;19999;-60
2023/09/14 20:34:15;;;;;;;1.92;1.20;;;;;;;;;;10372670;22;20003;-59
2023/09/14 20:38:18;;;;;;;2.97;1.40;;;;;;;;;;10372500;22;19999;-60
2023/09/14 20:42:19;;;;;;;3.90;1.75;;;;;;;;;;10371358;22;20006;-60
2023/09/14 20:46:19;;;;;;;3.38;1.08;;;;;;;;;;10373972;22;20350;-59
2023/09/14 20:50:19;;;;;;;2.97;1.10;;;;;;;;;;10370090;22;20047;-60
2023/09/14 20:54:19;;;;;;;1.93;1.10;;;;;;;;;;10370942;22;20010;-60
2023/09/14 20:58:21;;;;;;;2.15;1.08;;;;;;;;;;10376484;22;20218;-59
2023/09/14 21:02:21;;;;;;;4.18;1.40;;;;;;;;;;10372230;22;20812;-60
2023/09/14 21:06:21;;;;;;;1.83;0.98;;;;;;;;;;10362692;22;20121;-60
2023/09/14 21:10:21;;;;;;;1.33;1.10;;;;;;;;;;10370479;22;20061;-60
2023/09/14 21:14:28;;;;;;;2.00;1.20;;;;;;;;;;10373049;22;20545;-60
2023/09/14 21:18:28;;;;;;;2.40;1.35;;;;;;;;;;10377195;22;20407;-59
2023/09/14 21:22:28;;;;;;;2.63;1.00;;;;;;;;;;10374135;22;20233;-59
2023/09/14 21:26:29;;;;;;;2.93;1.43;;;;;;;;;;10372130;22;20090;-60
2023/09/14 21:30:31;;;;;;;2.30;1.17;;;;;;;;;;10376433;22;20004;-60
2023/09/14 21:34:41;;;;;;;2.33;1.30;;;;;;;;;;10386112;22;20037;-60
2023/09/14 21:38:41;;;;;;;2.90;1.40;;;;;;;;;;10384495;22;20881;-60
2023/09/14 21:42:42;;;;;;;2.97;1.20;;;;;;;;;;10384561;22;20014;-60
2023/09/14 21:46:42;;;;;;;7.03;1.30;;;;;;;;;;10386804;22;20039;-60
2023/09/14 21:50:42;;;;;;;4.47;1.20;;;;;;;;;;10383207;22;20019;-60
2023/09/14 21:54:43;;;;;;;2.63;1.48;;;;;;;;;;10383035;22;19995;-60
2023/09/14 21:58:43;;;;;;;2.60;1.10;;;;;;;;;;10373254;22;20007;-59
2023/09/14 22:02:43;;;;;;;5.38;1.55;;;;;;;;;;10374003;22;20011;-60
2023/09/14 22:06:47;;;;;;;2.47;1.38;;;;;;;;;;10371982;22;20030;-60
2023/09/14 22:10:47;;;;;;;4.38;1.60;;;;;;;;;;10382995;22;19999;-60
2023/09/14 22:14:47;;;;;;;4.05;1.42;;;;;;;;;;10387753;22;20003;-60
2023/09/14 22:18:47;;;;;;;3.25;1.48;;;;;;;;;;10383790;22;20260;-60
2023/09/14 22:22:49;;;;;;;3.00;1.57;;;;;;;;;;10377554;22;20752;-60
2023/09/14 22:26:50;;;;;;;4.03;1.42;;;;;;;;;;10378243;22;20007;-60
2023/09/14 22:30:50;;;;;;;3.88;1.50;;;;;;;;;;10381075;22;20088;-60
2023/09/14 22:34:50;;;;;;;3.20;1.60;;;;;;;;;;10380819;22;20029;-60
2023/09/14 22:38:50;;;;;;;2.85;1.50;;;;;;;;;;10383932;22;19999;-60
2023/09/14 22:42:51;;;;;;;2.45;1.23;;;;;;;;;;10384200;22;20011;-60
2023/09/14 22:46:51;;;;;;;4.03;1.35;;;;;;;;;;10383993;22;20870;-60
2023/09/14 22:51:16;;;;;;;3.83;1.73;;;;;;;;;;10384474;22;20764;-61
2023/09/14 22:55:16;;;;;;;2.38;1.35;;;;;;;;;;10383065;22;20537;-60
2023/09/14 22:59:18;;;;;;;5.10;1.27;;;;;;;;;;10382954;22;20014;-60
2023/09/14 23:03:19;;;;;;;2.60;1.25;;;;;;;;;;10382781;22;20121;-60
2023/09/14 23:07:19;;;;;;;2.50;1.33;;;;;;;;;;10383900;22;20022;-60
2023/09/14 23:11:23;;;;;;;1.90;1.20;;;;;;;;;;10384491;22;20226;-60
2023/09/14 23:15:26;;;;;;;1.67;1.50;;;;;;;;;;10382258;22;20011;-60
2023/09/14 23:19:29;;;;;;;5.47;1.33;;;;;;;;;;10379549;22;20271;-60
2023/09/14 23:23:30;;;;;;;2.88;1.40;;;;;;;;;;10381686;22;20007;-60
2023/09/14 23:27:30;;;;;;;4.82;1.60;;;;;;;;;;10381433;22;20010;-60
2023/09/14 23:31:31;;;;;;;3.37;1.43;;;;;;;;;;10381829;22;20012;-60
2023/09/14 23:35:32;;;;;;;3.05;1.45;;;;;;;;;;10386849;22;20065;-60
2023/09/14 23:39:32;;;;;;;2.83;1.35;;;;;;;;;;10380933;22;20441;-60
2023/09/14 23:43:32;;;;;;;2.17;1.30;;;;;;;;;;10384144;22;20110;-60
2023/09/14 23:47:33;;;;;;;3.15;1.40;;;;;;;;;;10371676;22;20770;-60